sensor_id;sensor_type;location;lat;lon;timestamp;P1;durP1;ratioP1;P2;durP2;ratioP2
37241;SDS011;23135;51.078;12.108;2023-05-02T00:01:28;5.22;;;3.50;;
37241;SDS011;23135;51.078;12.108;2023-05-02T00:03:54;6.35;;;3.28;;
37241;SDS011;23135;51.078;12.108;2023-05-02T00:06:19;5.28;;;3.47;;
37241;SDS011;23135;51.078;12.108;2023-05-02T00:08:45;7.25;;;4.43;;
37241;SDS011;23135;51.078;12.108;2023-05-02T00:11:12;5.07;;;3.75;;
37241;SDS011;23135;51.078;12.108;2023-05-02T00:13:38;9.40;;;4.93;;
37241;SDS011;23135;51.078;12.108;2023-05-02T00:16:03;7.55;;;3.53;;
37241;SDS011;23135;51.078;12.108;2023-05-02T00:18:30;4.15;;;2.78;;
37241;SDS011;23135;51.078;12.108;2023-05-02T00:20:55;6.82;;;4.30;;
37241;SDS011;23135;51.078;12.108;2023-05-02T00:23:21;8.27;;;4.20;;
37241;SDS011;23135;51.078;12.108;2023-05-02T00:25:46;6.47;;;3.90;;
37241;SDS011;23135;51.078;12.108;2023-05-02T00:28:12;4.40;;;3.65;;
37241;SDS011;23135;51.078;12.108;2023-05-02T00:30:42;6.88;;;3.95;;
37241;SDS011;23135;51.078;12.108;2023-05-02T00:33:08;5.88;;;3.88;;
37241;SDS011;23135;51.078;12.108;2023-05-02T00:35:36;4.82;;;3.58;;
37241;SDS011;23135;51.078;12.108;2023-05-02T00:38:02;3.95;;;3.30;;
37241;SDS011;23135;51.078;12.108;2023-05-02T00:40:27;5.65;;;3.70;;
37241;SDS011;23135;51.078;12.108;2023-05-02T00:42:53;7.78;;;3.55;;
37241;SDS011;23135;51.078;12.108;2023-05-02T00:45:18;7.85;;;4.07;;
37241;SDS011;23135;51.078;12.108;2023-05-02T00:47:44;3.75;;;3.22;;
37241;SDS011;23135;51.078;12.108;2023-05-02T00:50:09;9.38;;;3.97;;
37241;SDS011;23135;51.078;12.108;2023-05-02T00:52:36;6.25;;;3.95;;
37241;SDS011;23135;51.078;12.108;2023-05-02T00:55:01;8.35;;;4.82;;
37241;SDS011;23135;51.078;12.108;2023-05-02T00:57:27;5.40;;;4.70;;
37241;SDS011;23135;51.078;12.108;2023-05-02T00:59:53;8.15;;;4.30;;
37241;SDS011;23135;51.078;12.108;2023-05-02T01:05:09;7.60;;;4.20;;
37241;SDS011;23135;51.078;12.108;2023-05-02T01:10:47;5.53;;;3.92;;
37241;SDS011;23135;51.078;12.108;2023-05-02T01:13:21;4.45;;;3.83;;
37241;SDS011;23135;51.078;12.108;2023-05-02T01:15:52;7.03;;;3.88;;
37241;SDS011;23135;51.078;12.108;2023-05-02T01:18:21;7.43;;;3.53;;
37241;SDS011;23135;51.078;12.108;2023-05-02T01:20:51;6.13;;;3.38;;
37241;SDS011;23135;51.078;12.108;2023-05-02T01:23:30;11.18;;;4.88;;
37241;SDS011;23135;51.078;12.108;2023-05-02T01:26:16;6.78;;;4.05;;
37241;SDS011;23135;51.078;12.108;2023-05-02T01:29:05;7.43;;;4.00;;
37241;SDS011;23135;51.078;12.108;2023-05-02T01:31:40;9.68;;;3.70;;
37241;SDS011;23135;51.078;12.108;2023-05-02T01:34:08;6.95;;;3.72;;
37241;SDS011;23135;51.078;12.108;2023-05-02T01:36:34;7.18;;;3.80;;
37241;SDS011;23135;51.078;12.108;2023-05-02T01:39:02;6.13;;;3.67;;
37241;SDS011;23135;51.078;12.108;2023-05-02T01:41:31;8.68;;;3.83;;
37241;SDS011;23135;51.078;12.108;2023-05-02T01:43:59;5.55;;;3.67;;
37241;SDS011;23135;51.078;12.108;2023-05-02T01:46:29;5.43;;;3.10;;
37241;SDS011;23135;51.078;12.108;2023-05-02T01:48:56;4.05;;;3.17;;
37241;SDS011;23135;51.078;12.108;2023-05-02T01:51:29;4.50;;;3.78;;
37241;SDS011;23135;51.078;12.108;2023-05-02T01:54:03;5.75;;;3.90;;
37241;SDS011;23135;51.078;12.108;2023-05-02T01:56:31;3.70;;;2.80;;
37241;SDS011;23135;51.078;12.108;2023-05-02T01:58:59;9.77;;;3.97;;
37241;SDS011;23135;51.078;12.108;2023-05-02T02:01:26;8.45;;;3.42;;
37241;SDS011;23135;51.078;12.108;2023-05-02T02:03:54;5.57;;;3.55;;
37241;SDS011;23135;51.078;12.108;2023-05-02T02:06:21;7.03;;;3.25;;
37241;SDS011;23135;51.078;12.108;2023-05-02T02:08:47;5.38;;;2.95;;
37241;SDS011;23135;51.078;12.108;2023-05-02T02:11:15;5.43;;;3.95;;
37241;SDS011;23135;51.078;12.108;2023-05-02T02:13:45;5.05;;;3.88;;
37241;SDS011;23135;51.078;12.108;2023-05-02T02:16:15;5.75;;;3.60;;
37241;SDS011;23135;51.078;12.108;2023-05-02T02:18:48;4.15;;;2.92;;
37241;SDS011;23135;51.078;12.108;2023-05-02T02:21:15;7.15;;;4.35;;
37241;SDS011;23135;51.078;12.108;2023-05-02T02:23:43;5.78;;;4.18;;
37241;SDS011;23135;51.078;12.108;2023-05-02T02:26:13;9.50;;;3.85;;
37241;SDS011;23135;51.078;12.108;2023-05-02T02:28:39;4.43;;;3.67;;
37241;SDS011;23135;51.078;12.108;2023-05-02T02:31:05;4.93;;;3.72;;
37241;SDS011;23135;51.078;12.108;2023-05-02T02:33:31;3.72;;;2.97;;
37241;SDS011;23135;51.078;12.108;2023-05-02T02:36:04;4.93;;;3.03;;
37241;SDS011;23135;51.078;12.108;2023-05-02T02:38:45;5.63;;;3.55;;
37241;SDS011;23135;51.078;12.108;2023-05-02T02:41:13;4.65;;;3.60;;
37241;SDS011;23135;51.078;12.108;2023-05-02T02:46:28;6.55;;;3.67;;
37241;SDS011;23135;51.078;12.108;2023-05-02T02:49:12;5.75;;;3.45;;
37241;SDS011;23135;51.078;12.108;2023-05-02T02:51:52;5.63;;;3.17;;
37241;SDS011;23135;51.078;12.108;2023-05-02T02:54:28;4.97;;;3.20;;
37241;SDS011;23135;51.078;12.108;2023-05-02T02:57:40;4.35;;;3.38;;
37241;SDS011;23135;51.078;12.108;2023-05-02T02:59:54;6.68;;;3.53;;
37241;SDS011;23135;51.078;12.108;2023-05-02T03:02:27;5.10;;;3.17;;
37241;SDS011;23135;51.078;12.108;2023-05-02T03:04:56;6.85;;;4.10;;
37241;SDS011;23135;51.078;12.108;2023-05-02T03:07:22;5.57;;;3.47;;
37241;SDS011;23135;51.078;12.108;2023-05-02T03:09:51;7.50;;;3.50;;
37241;SDS011;23135;51.078;12.108;2023-05-02T03:12:16;7.30;;;4.05;;
37241;SDS011;23135;51.078;12.108;2023-05-02T03:14:42;7.55;;;4.63;;
37241;SDS011;23135;51.078;12.108;2023-05-02T03:17:07;11.38;;;5.22;;
37241;SDS011;23135;51.078;12.108;2023-05-02T03:19:33;7.30;;;3.78;;
37241;SDS011;23135;51.078;12.108;2023-05-02T03:21:59;6.78;;;4.10;;
37241;SDS011;23135;51.078;12.108;2023-05-02T03:24:24;6.75;;;3.83;;
37241;SDS011;23135;51.078;12.108;2023-05-02T03:26:53;4.50;;;3.63;;
37241;SDS011;23135;51.078;12.108;2023-05-02T03:29:20;3.47;;;3.17;;
37241;SDS011;23135;51.078;12.108;2023-05-02T03:31:46;8.55;;;3.58;;
37241;SDS011;23135;51.078;12.108;2023-05-02T03:34:11;5.43;;;3.92;;
37241;SDS011;23135;51.078;12.108;2023-05-02T03:36:37;5.05;;;3.72;;
37241;SDS011;23135;51.078;12.108;2023-05-02T03:39:02;6.07;;;3.95;;
37241;SDS011;23135;51.078;12.108;2023-05-02T03:41:28;4.55;;;3.47;;
37241;SDS011;23135;51.078;12.108;2023-05-02T03:43:54;7.55;;;4.35;;
37241;SDS011;23135;51.078;12.108;2023-05-02T03:46:20;7.63;;;4.32;;
37241;SDS011;23135;51.078;12.108;2023-05-02T03:48:45;7.00;;;4.70;;
37241;SDS011;23135;51.078;12.108;2023-05-02T03:51:11;5.70;;;4.47;;
37241;SDS011;23135;51.078;12.108;2023-05-02T03:53:37;5.72;;;4.07;;
37241;SDS011;23135;51.078;12.108;2023-05-02T03:56:03;5.18;;;3.53;;
37241;SDS011;23135;51.078;12.108;2023-05-02T03:58:28;6.05;;;3.90;;
37241;SDS011;23135;51.078;12.108;2023-05-02T04:00:54;5.93;;;4.22;;
37241;SDS011;23135;51.078;12.108;2023-05-02T04:03:20;10.98;;;5.38;;
37241;SDS011;23135;51.078;12.108;2023-05-02T04:05:46;6.55;;;4.00;;
37241;SDS011;23135;51.078;12.108;2023-05-02T04:08:12;7.05;;;4.13;;
37241;SDS011;23135;51.078;12.108;2023-05-02T04:10:37;9.05;;;4.35;;
37241;SDS011;23135;51.078;12.108;2023-05-02T04:13:03;9.65;;;4.05;;
37241;SDS011;23135;51.078;12.108;2023-05-02T04:15:29;5.57;;;4.35;;
37241;SDS011;23135;51.078;12.108;2023-05-02T04:17:58;9.57;;;5.13;;
37241;SDS011;23135;51.078;12.108;2023-05-02T04:20:24;5.32;;;4.18;;
37241;SDS011;23135;51.078;12.108;2023-05-02T04:22:50;5.68;;;3.85;;
37241;SDS011;23135;51.078;12.108;2023-05-02T04:25:16;6.95;;;5.65;;
37241;SDS011;23135;51.078;12.108;2023-05-02T04:27:41;7.40;;;4.18;;
37241;SDS011;23135;51.078;12.108;2023-05-02T04:30:07;7.78;;;4.30;;
37241;SDS011;23135;51.078;12.108;2023-05-02T04:32:34;7.32;;;4.60;;
37241;SDS011;23135;51.078;12.108;2023-05-02T04:35:00;10.50;;;5.00;;
37241;SDS011;23135;51.078;12.108;2023-05-02T04:37:26;8.50;;;4.80;;
37241;SDS011;23135;51.078;12.108;2023-05-02T04:39:51;7.40;;;4.72;;
37241;SDS011;23135;51.078;12.108;2023-05-02T04:42:17;12.52;;;4.88;;
37241;SDS011;23135;51.078;12.108;2023-05-02T04:44:42;7.40;;;4.18;;
37241;SDS011;23135;51.078;12.108;2023-05-02T04:47:08;8.98;;;4.85;;
37241;SDS011;23135;51.078;12.108;2023-05-02T04:49:34;12.80;;;5.13;;
37241;SDS011;23135;51.078;12.108;2023-05-02T04:51:59;6.55;;;4.60;;
37241;SDS011;23135;51.078;12.108;2023-05-02T04:54:25;7.35;;;5.07;;
37241;SDS011;23135;51.078;12.108;2023-05-02T04:56:51;8.75;;;5.32;;
37241;SDS011;23135;51.078;12.108;2023-05-02T04:59:17;8.07;;;6.35;;
37241;SDS011;23135;51.078;12.108;2023-05-02T05:01:42;7.20;;;5.60;;
37241;SDS011;23135;51.078;12.108;2023-05-02T05:04:09;5.00;;;4.45;;
37241;SDS011;23135;51.078;12.108;2023-05-02T05:06:34;8.05;;;4.60;;
37241;SDS011;23135;51.078;12.108;2023-05-02T05:09:00;6.55;;;4.68;;
37241;SDS011;23135;51.078;12.108;2023-05-02T05:11:26;10.85;;;5.38;;
37241;SDS011;23135;51.078;12.108;2023-05-02T05:13:52;10.40;;;4.85;;
37241;SDS011;23135;51.078;12.108;2023-05-02T05:16:17;4.20;;;3.78;;
37241;SDS011;23135;51.078;12.108;2023-05-02T05:18:43;10.18;;;5.25;;
37241;SDS011;23135;51.078;12.108;2023-05-02T05:21:09;8.95;;;4.78;;
37241;SDS011;23135;51.078;12.108;2023-05-02T05:23:35;17.67;;;5.45;;
37241;SDS011;23135;51.078;12.108;2023-05-02T05:26:11;7.72;;;6.15;;
37241;SDS011;23135;51.078;12.108;2023-05-02T05:28:39;7.05;;;5.45;;
37241;SDS011;23135;51.078;12.108;2023-05-02T05:31:08;13.10;;;7.43;;
37241;SDS011;23135;51.078;12.108;2023-05-02T05:33:35;12.18;;;8.65;;
37241;SDS011;23135;51.078;12.108;2023-05-02T05:36:05;14.07;;;7.80;;
37241;SDS011;23135;51.078;12.108;2023-05-02T05:38:31;10.13;;;6.40;;
37241;SDS011;23135;51.078;12.108;2023-05-02T05:40:56;11.00;;;7.05;;
37241;SDS011;23135;51.078;12.108;2023-05-02T05:43:22;5.45;;;4.57;;
37241;SDS011;23135;51.078;12.108;2023-05-02T05:45:50;9.05;;;6.07;;
37241;SDS011;23135;51.078;12.108;2023-05-02T05:48:16;8.00;;;5.47;;
37241;SDS011;23135;51.078;12.108;2023-05-02T05:50:41;8.50;;;4.88;;
37241;SDS011;23135;51.078;12.108;2023-05-02T05:53:07;6.47;;;4.18;;
37241;SDS011;23135;51.078;12.108;2023-05-02T05:55:33;5.55;;;3.63;;
37241;SDS011;23135;51.078;12.108;2023-05-02T05:57:58;7.30;;;3.53;;
37241;SDS011;23135;51.078;12.108;2023-05-02T06:00:24;5.00;;;3.67;;
37241;SDS011;23135;51.078;12.108;2023-05-02T06:02:49;9.35;;;3.58;;
37241;SDS011;23135;51.078;12.108;2023-05-02T06:05:15;4.88;;;4.07;;
37241;SDS011;23135;51.078;12.108;2023-05-02T06:07:41;7.93;;;3.97;;
37241;SDS011;23135;51.078;12.108;2023-05-02T06:10:07;5.65;;;3.80;;
37241;SDS011;23135;51.078;12.108;2023-05-02T06:12:33;8.55;;;4.00;;
37241;SDS011;23135;51.078;12.108;2023-05-02T06:14:59;7.93;;;4.35;;
37241;SDS011;23135;51.078;12.108;2023-05-02T06:17:25;9.77;;;4.72;;
37241;SDS011;23135;51.078;12.108;2023-05-02T06:19:51;17.50;;;11.80;;
37241;SDS011;23135;51.078;12.108;2023-05-02T06:22:16;5.25;;;4.35;;
37241;SDS011;23135;51.078;12.108;2023-05-02T06:24:42;6.72;;;4.63;;
37241;SDS011;23135;51.078;12.108;2023-05-02T06:27:08;8.00;;;4.45;;
37241;SDS011;23135;51.078;12.108;2023-05-02T06:29:33;5.20;;;3.97;;
37241;SDS011;23135;51.078;12.108;2023-05-02T06:31:59;6.47;;;4.20;;
37241;SDS011;23135;51.078;12.108;2023-05-02T06:34:24;7.85;;;4.68;;
37241;SDS011;23135;51.078;12.108;2023-05-02T06:36:53;7.03;;;4.15;;
37241;SDS011;23135;51.078;12.108;2023-05-02T06:39:20;5.30;;;4.05;;
37241;SDS011;23135;51.078;12.108;2023-05-02T06:41:46;5.50;;;3.80;;
37241;SDS011;23135;51.078;12.108;2023-05-02T06:44:12;6.15;;;3.97;;
37241;SDS011;23135;51.078;12.108;2023-05-02T06:46:38;8.85;;;4.78;;
37241;SDS011;23135;51.078;12.108;2023-05-02T06:49:03;5.93;;;3.97;;
37241;SDS011;23135;51.078;12.108;2023-05-02T06:51:29;8.93;;;4.75;;
37241;SDS011;23135;51.078;12.108;2023-05-02T06:53:55;4.18;;;3.78;;
37241;SDS011;23135;51.078;12.108;2023-05-02T06:56:22;5.25;;;4.13;;
37241;SDS011;23135;51.078;12.108;2023-05-02T06:58:49;4.97;;;3.63;;
37241;SDS011;23135;51.078;12.108;2023-05-02T07:01:15;4.78;;;3.65;;
37241;SDS011;23135;51.078;12.108;2023-05-02T07:03:40;8.43;;;4.88;;
37241;SDS011;23135;51.078;12.108;2023-05-02T07:06:06;4.90;;;3.78;;
37241;SDS011;23135;51.078;12.108;2023-05-02T07:08:31;7.43;;;3.83;;
37241;SDS011;23135;51.078;12.108;2023-05-02T07:10:57;5.65;;;3.65;;
37241;SDS011;23135;51.078;12.108;2023-05-02T07:13:23;7.25;;;4.55;;
37241;SDS011;23135;51.078;12.108;2023-05-02T07:15:48;6.35;;;4.25;;
37241;SDS011;23135;51.078;12.108;2023-05-02T07:18:14;6.80;;;3.63;;
37241;SDS011;23135;51.078;12.108;2023-05-02T07:20:39;6.00;;;4.28;;
37241;SDS011;23135;51.078;12.108;2023-05-02T07:23:06;4.35;;;3.35;;
37241;SDS011;23135;51.078;12.108;2023-05-02T07:25:33;4.72;;;3.85;;
37241;SDS011;23135;51.078;12.108;2023-05-02T07:27:58;4.05;;;3.45;;
37241;SDS011;23135;51.078;12.108;2023-05-02T07:30:24;6.75;;;4.00;;
37241;SDS011;23135;51.078;12.108;2023-05-02T07:32:50;6.95;;;4.13;;
37241;SDS011;23135;51.078;12.108;2023-05-02T07:35:15;6.13;;;3.15;;
37241;SDS011;23135;51.078;12.108;2023-05-02T07:37:41;4.90;;;3.10;;
37241;SDS011;23135;51.078;12.108;2023-05-02T07:40:07;5.47;;;3.25;;
37241;SDS011;23135;51.078;12.108;2023-05-02T07:42:33;6.68;;;4.18;;
37241;SDS011;23135;51.078;12.108;2023-05-02T07:44:59;4.28;;;3.65;;
37241;SDS011;23135;51.078;12.108;2023-05-02T07:47:25;4.47;;;3.35;;
37241;SDS011;23135;51.078;12.108;2023-05-02T07:49:51;4.90;;;3.05;;
37241;SDS011;23135;51.078;12.108;2023-05-02T07:52:20;11.68;;;3.13;;
37241;SDS011;23135;51.078;12.108;2023-05-02T07:54:49;5.13;;;3.05;;
37241;SDS011;23135;51.078;12.108;2023-05-02T07:57:15;4.43;;;3.17;;
37241;SDS011;23135;51.078;12.108;2023-05-02T07:59:41;4.68;;;3.22;;
37241;SDS011;23135;51.078;12.108;2023-05-02T08:02:07;8.57;;;2.95;;
37241;SDS011;23135;51.078;12.108;2023-05-02T08:04:33;5.00;;;2.25;;
37241;SDS011;23135;51.078;12.108;2023-05-02T08:06:59;6.78;;;2.83;;
37241;SDS011;23135;51.078;12.108;2023-05-02T08:09:24;6.50;;;2.85;;
37241;SDS011;23135;51.078;12.108;2023-05-02T08:11:50;3.40;;;1.90;;
37241;SDS011;23135;51.078;12.108;2023-05-02T08:14:16;2.97;;;2.65;;
37241;SDS011;23135;51.078;12.108;2023-05-02T08:16:41;6.43;;;2.85;;
37241;SDS011;23135;51.078;12.108;2023-05-02T08:19:07;3.22;;;2.15;;
37241;SDS011;23135;51.078;12.108;2023-05-02T08:21:33;3.67;;;2.75;;
37241;SDS011;23135;51.078;12.108;2023-05-02T08:23:59;5.93;;;2.28;;
37241;SDS011;23135;51.078;12.108;2023-05-02T08:26:26;4.55;;;2.58;;
37241;SDS011;23135;51.078;12.108;2023-05-02T08:28:52;8.07;;;2.58;;
37241;SDS011;23135;51.078;12.108;2023-05-02T08:31:18;2.60;;;2.20;;
37241;SDS011;23135;51.078;12.108;2023-05-02T08:33:44;3.20;;;2.78;;
37241;SDS011;23135;51.078;12.108;2023-05-02T08:36:13;3.30;;;1.83;;
37241;SDS011;23135;51.078;12.108;2023-05-02T08:38:40;7.82;;;5.18;;
37241;SDS011;23135;51.078;12.108;2023-05-02T08:41:13;5.93;;;2.75;;
37241;SDS011;23135;51.078;12.108;2023-05-02T08:43:46;7.75;;;2.55;;
37241;SDS011;23135;51.078;12.108;2023-05-02T08:46:13;4.97;;;3.50;;
37241;SDS011;23135;51.078;12.108;2023-05-02T08:48:41;7.43;;;4.55;;
37241;SDS011;23135;51.078;12.108;2023-05-02T08:51:08;4.97;;;4.18;;
37241;SDS011;23135;51.078;12.108;2023-05-02T08:53:36;3.65;;;2.75;;
37241;SDS011;23135;51.078;12.108;2023-05-02T08:56:02;5.82;;;3.42;;
37241;SDS011;23135;51.078;12.108;2023-05-02T08:58:28;7.18;;;5.10;;
37241;SDS011;23135;51.078;12.108;2023-05-02T09:01:00;6.03;;;5.05;;
37241;SDS011;23135;51.078;12.108;2023-05-02T09:03:31;10.27;;;6.35;;
37241;SDS011;23135;51.078;12.108;2023-05-02T09:06:08;10.18;;;4.93;;
37241;SDS011;23135;51.078;12.108;2023-05-02T09:08:39;8.02;;;4.85;;
37241;SDS011;23135;51.078;12.108;2023-05-02T09:11:06;8.57;;;5.95;;
37241;SDS011;23135;51.078;12.108;2023-05-02T09:21:04;14.10;;;9.80;;
37241;SDS011;23135;51.078;12.108;2023-05-02T09:26:08;9.90;;;7.03;;
37241;SDS011;23135;51.078;12.108;2023-05-02T09:28:39;9.57;;;6.30;;
37241;SDS011;23135;51.078;12.108;2023-05-02T09:31:16;9.20;;;6.72;;
37241;SDS011;23135;51.078;12.108;2023-05-02T09:33:49;8.68;;;6.15;;
37241;SDS011;23135;51.078;12.108;2023-05-02T09:36:16;9.90;;;6.88;;
37241;SDS011;23135;51.078;12.108;2023-05-02T09:38:43;15.07;;;6.45;;
37241;SDS011;23135;51.078;12.108;2023-05-02T09:41:10;13.55;;;6.40;;
37241;SDS011;23135;51.078;12.108;2023-05-02T09:43:36;11.48;;;6.90;;
37241;SDS011;23135;51.078;12.108;2023-05-02T09:46:03;9.48;;;6.70;;
37241;SDS011;23135;51.078;12.108;2023-05-02T09:48:31;12.18;;;7.22;;
37241;SDS011;23135;51.078;12.108;2023-05-02T09:50:58;13.32;;;5.47;;
37241;SDS011;23135;51.078;12.108;2023-05-02T09:53:24;10.00;;;6.07;;
37241;SDS011;23135;51.078;12.108;2023-05-02T09:56:12;11.27;;;7.70;;
37241;SDS011;23135;51.078;12.108;2023-05-02T09:58:37;16.55;;;8.20;;
37241;SDS011;23135;51.078;12.108;2023-05-02T10:01:03;14.48;;;7.97;;
37241;SDS011;23135;51.078;12.108;2023-05-02T10:03:28;9.18;;;6.80;;
37241;SDS011;23135;51.078;12.108;2023-05-02T10:05:56;10.07;;;7.03;;
37241;SDS011;23135;51.078;12.108;2023-05-02T10:08:25;10.70;;;6.93;;
37241;SDS011;23135;51.078;12.108;2023-05-02T10:13:20;8.93;;;6.85;;
37241;SDS011;23135;51.078;12.108;2023-05-02T10:15:48;10.70;;;6.45;;
37241;SDS011;23135;51.078;12.108;2023-05-02T10:18:57;9.60;;;7.43;;
37241;SDS011;23135;51.078;12.108;2023-05-02T10:21:16;12.35;;;6.47;;
37241;SDS011;23135;51.078;12.108;2023-05-02T10:23:49;9.55;;;7.00;;
37241;SDS011;23135;51.078;12.108;2023-05-02T10:26:17;10.90;;;7.30;;
37241;SDS011;23135;51.078;12.108;2023-05-02T10:28:45;8.60;;;6.32;;
37241;SDS011;23135;51.078;12.108;2023-05-02T10:31:12;11.43;;;5.95;;
37241;SDS011;23135;51.078;12.108;2023-05-02T10:33:39;9.63;;;6.75;;
37241;SDS011;23135;51.078;12.108;2023-05-02T10:36:06;8.35;;;6.63;;
37241;SDS011;23135;51.078;12.108;2023-05-02T10:38:34;10.45;;;6.82;;
37241;SDS011;23135;51.078;12.108;2023-05-02T10:41:02;8.13;;;5.40;;
37241;SDS011;23135;51.078;12.108;2023-05-02T10:43:34;9.27;;;5.78;;
37241;SDS011;23135;51.078;12.108;2023-05-02T10:46:01;6.65;;;4.97;;
37241;SDS011;23135;51.078;12.108;2023-05-02T10:48:27;10.23;;;6.07;;
37241;SDS011;23135;51.078;12.108;2023-05-02T10:51:00;9.48;;;6.72;;
37241;SDS011;23135;51.078;12.108;2023-05-02T10:53:28;10.50;;;5.88;;
37241;SDS011;23135;51.078;12.108;2023-05-02T10:56:12;6.88;;;5.53;;
37241;SDS011;23135;51.078;12.108;2023-05-02T11:03:57;5.28;;;4.78;;
37241;SDS011;23135;51.078;12.108;2023-05-02T11:06:28;5.97;;;4.75;;
37241;SDS011;23135;51.078;12.108;2023-05-02T11:11:45;8.00;;;5.38;;
37241;SDS011;23135;51.078;12.108;2023-05-02T11:14:41;6.18;;;4.78;;
37241;SDS011;23135;51.078;12.108;2023-05-02T11:17:04;6.03;;;4.47;;
37241;SDS011;23135;51.078;12.108;2023-05-02T11:24:45;6.55;;;4.25;;
37241;SDS011;23135;51.078;12.108;2023-05-02T11:35:18;7.25;;;4.35;;
37241;SDS011;23135;51.078;12.108;2023-05-02T11:40:32;5.65;;;3.70;;
37241;SDS011;23135;51.078;12.108;2023-05-02T11:42:58;6.85;;;4.60;;
37241;SDS011;23135;51.078;12.108;2023-05-02T11:45:31;5.80;;;4.60;;
37241;SDS011;23135;51.078;12.108;2023-05-02T11:48:01;8.48;;;5.20;;
37241;SDS011;23135;51.078;12.108;2023-05-02T11:50:28;7.85;;;5.05;;
37241;SDS011;23135;51.078;12.108;2023-05-02T11:52:54;7.75;;;4.90;;
37241;SDS011;23135;51.078;12.108;2023-05-02T11:55:20;5.07;;;4.53;;
37241;SDS011;23135;51.078;12.108;2023-05-02T11:57:46;8.13;;;4.05;;
37241;SDS011;23135;51.078;12.108;2023-05-02T12:00:11;5.63;;;4.05;;
37241;SDS011;23135;51.078;12.108;2023-05-02T12:02:41;6.65;;;4.35;;
37241;SDS011;23135;51.078;12.108;2023-05-02T12:05:08;7.00;;;4.40;;
37241;SDS011;23135;51.078;12.108;2023-05-02T12:07:42;6.57;;;4.30;;
37241;SDS011;23135;51.078;12.108;2023-05-02T12:10:09;4.38;;;1.50;;
37241;SDS011;23135;51.078;12.108;2023-05-02T12:12:36;4.07;;;0.55;;
37241;SDS011;23135;51.078;12.108;2023-05-02T12:15:07;0.65;;;0.20;;
37241;SDS011;23135;51.078;12.108;2023-05-02T12:17:36;0.57;;;0.57;;
37241;SDS011;23135;51.078;12.108;2023-05-02T12:20:03;2.05;;;0.75;;
37241;SDS011;23135;51.078;12.108;2023-05-02T12:22:31;1.88;;;0.50;;
37241;SDS011;23135;51.078;12.108;2023-05-02T12:24:57;6.30;;;0.55;;
37241;SDS011;23135;51.078;12.108;2023-05-02T12:27:23;3.67;;;0.98;;
37241;SDS011;23135;51.078;12.108;2023-05-02T12:29:49;1.27;;;1.17;;
37241;SDS011;23135;51.078;12.108;2023-05-02T12:32:25;1.08;;;0.85;;
37241;SDS011;23135;51.078;12.108;2023-05-02T12:34:53;2.08;;;1.13;;
37241;SDS011;23135;51.078;12.108;2023-05-02T12:37:22;2.55;;;1.75;;
37241;SDS011;23135;51.078;12.108;2023-05-02T12:39:54;2.60;;;1.83;;
37241;SDS011;23135;51.078;12.108;2023-05-02T12:42:21;1.60;;;1.50;;
37241;SDS011;23135;51.078;12.108;2023-05-02T12:44:48;2.63;;;2.42;;
37241;SDS011;23135;51.078;12.108;2023-05-02T12:47:16;2.30;;;1.15;;
37241;SDS011;23135;51.078;12.108;2023-05-02T12:49:56;2.45;;;1.40;;
37241;SDS011;23135;51.078;12.108;2023-05-02T12:55:23;4.10;;;2.15;;
37241;SDS011;23135;51.078;12.108;2023-05-02T12:57:58;2.42;;;2.22;;
37241;SDS011;23135;51.078;12.108;2023-05-02T13:00:24;3.35;;;2.40;;
37241;SDS011;23135;51.078;12.108;2023-05-02T13:02:50;2.10;;;1.95;;
37241;SDS011;23135;51.078;12.108;2023-05-02T13:05:19;2.25;;;2.05;;
37241;SDS011;23135;51.078;12.108;2023-05-02T13:07:44;5.85;;;1.88;;
37241;SDS011;23135;51.078;12.108;2023-05-02T13:10:10;5.97;;;2.15;;
37241;SDS011;23135;51.078;12.108;2023-05-02T13:12:36;4.18;;;3.42;;
37241;SDS011;23135;51.078;12.108;2023-05-02T13:15:03;5.75;;;4.43;;
37241;SDS011;23135;51.078;12.108;2023-05-02T13:17:29;27.38;;;15.25;;
37241;SDS011;23135;51.078;12.108;2023-05-02T13:19:55;6.25;;;3.55;;
37241;SDS011;23135;51.078;12.108;2023-05-02T13:22:20;3.42;;;2.70;;
37241;SDS011;23135;51.078;12.108;2023-05-02T13:24:46;4.20;;;3.55;;
37241;SDS011;23135;51.078;12.108;2023-05-02T13:27:11;5.13;;;3.85;;
37241;SDS011;23135;51.078;12.108;2023-05-02T13:29:37;5.90;;;5.10;;
37241;SDS011;23135;51.078;12.108;2023-05-02T13:32:03;6.35;;;5.45;;
37241;SDS011;23135;51.078;12.108;2023-05-02T13:34:28;6.80;;;5.00;;
37241;SDS011;23135;51.078;12.108;2023-05-02T13:36:54;8.15;;;5.57;;
37241;SDS011;23135;51.078;12.108;2023-05-02T13:39:19;5.40;;;4.90;;
37241;SDS011;23135;51.078;12.108;2023-05-02T13:41:45;11.45;;;8.80;;
37241;SDS011;23135;51.078;12.108;2023-05-02T13:44:10;14.90;;;12.27;;
37241;SDS011;23135;51.078;12.108;2023-05-02T13:46:36;14.60;;;11.93;;
37241;SDS011;23135;51.078;12.108;2023-05-02T13:49:02;19.77;;;16.20;;
37241;SDS011;23135;51.078;12.108;2023-05-02T13:51:29;16.63;;;12.52;;
37241;SDS011;23135;51.078;12.108;2023-05-02T13:53:58;10.10;;;5.82;;
37241;SDS011;23135;51.078;12.108;2023-05-02T13:56:25;7.65;;;4.85;;
37241;SDS011;23135;51.078;12.108;2023-05-02T13:58:50;9.77;;;4.32;;
37241;SDS011;23135;51.078;12.108;2023-05-02T14:01:16;8.80;;;5.97;;
37241;SDS011;23135;51.078;12.108;2023-05-02T14:03:42;9.52;;;5.78;;
37241;SDS011;23135;51.078;12.108;2023-05-02T14:06:07;8.40;;;4.57;;
37241;SDS011;23135;51.078;12.108;2023-05-02T14:08:33;13.05;;;5.40;;
37241;SDS011;23135;51.078;12.108;2023-05-02T14:10:59;12.38;;;4.65;;
37241;SDS011;23135;51.078;12.108;2023-05-02T14:13:24;9.55;;;5.90;;
37241;SDS011;23135;51.078;12.108;2023-05-02T14:15:50;9.65;;;4.85;;
37241;SDS011;23135;51.078;12.108;2023-05-02T14:18:16;11.80;;;5.50;;
37241;SDS011;23135;51.078;12.108;2023-05-02T14:20:42;7.50;;;4.93;;
37241;SDS011;23135;51.078;12.108;2023-05-02T14:23:08;12.85;;;6.28;;
37241;SDS011;23135;51.078;12.108;2023-05-02T14:25:34;15.27;;;8.27;;
37241;SDS011;23135;51.078;12.108;2023-05-02T14:28:00;14.23;;;6.90;;
37241;SDS011;23135;51.078;12.108;2023-05-02T14:30:26;10.80;;;6.47;;
37241;SDS011;23135;51.078;12.108;2023-05-02T14:32:52;14.23;;;6.57;;
37241;SDS011;23135;51.078;12.108;2023-05-02T14:35:18;8.55;;;5.35;;
37241;SDS011;23135;51.078;12.108;2023-05-02T14:37:44;10.52;;;5.03;;
37241;SDS011;23135;51.078;12.108;2023-05-02T14:40:11;10.52;;;5.90;;
37241;SDS011;23135;51.078;12.108;2023-05-02T14:42:38;12.95;;;6.93;;
37241;SDS011;23135;51.078;12.108;2023-05-02T14:45:04;10.65;;;5.53;;
37241;SDS011;23135;51.078;12.108;2023-05-02T14:47:30;11.07;;;5.43;;
37241;SDS011;23135;51.078;12.108;2023-05-02T14:49:56;14.38;;;6.47;;
37241;SDS011;23135;51.078;12.108;2023-05-02T14:52:21;17.75;;;7.05;;
37241;SDS011;23135;51.078;12.108;2023-05-02T14:54:47;11.10;;;6.30;;
37241;SDS011;23135;51.078;12.108;2023-05-02T14:57:13;15.55;;;6.80;;
37241;SDS011;23135;51.078;12.108;2023-05-02T14:59:39;16.60;;;6.90;;
37241;SDS011;23135;51.078;12.108;2023-05-02T15:02:05;17.27;;;5.85;;
37241;SDS011;23135;51.078;12.108;2023-05-02T15:04:31;10.25;;;4.75;;
37241;SDS011;23135;51.078;12.108;2023-05-02T15:06:58;13.68;;;5.85;;
37241;SDS011;23135;51.078;12.108;2023-05-02T15:09:24;12.98;;;7.22;;
37241;SDS011;23135;51.078;12.108;2023-05-02T15:11:50;12.75;;;5.18;;
37241;SDS011;23135;51.078;12.108;2023-05-02T15:14:16;14.75;;;5.82;;
37241;SDS011;23135;51.078;12.108;2023-05-02T15:16:42;19.55;;;5.25;;
37241;SDS011;23135;51.078;12.108;2023-05-02T15:19:08;13.30;;;5.43;;
37241;SDS011;23135;51.078;12.108;2023-05-02T15:21:34;16.27;;;5.97;;